Kyancutta, Australia
Current Conditions -  °F | °C
As of 12:00 PM on Sunday 26 Oct 2014 (Local Time) from YWHA Reporting Station
Scattered Clouds Scattered Clouds  
Wind Chill: 73°   Ceiling: Unl
Heat Index: 73°   Visibility: 6mi
Dew Point: 59°   Wind: 10mph
Humidity: 61%   Direction: 30°NNE
Pressure: 29.85"   Gusts: NA
Location:  33.13°S, 135.55°E
Report Text: YWHA 260200Z AUTO 03009KT 9999 // SCT041 SCT068 SCT088 23/15 Q1011
Loading
Personal Weather Stations






























Interactive Weather Map
Tropical Storm Tracking
New forecast layout! Learn more

10-Day Weather Forecast

Advertisements
Track Severe Weather on mobile